createdAt,value
2016-06-11T00:00:58.573Z,1005.24
2016-06-11T00:01:58.607Z,1005.19
2016-06-11T00:02:58.673Z,1005.23
2016-06-11T00:03:58.707Z,1005.2
2016-06-11T00:04:58.757Z,1005.21
2016-06-11T00:05:58.823Z,1005.23
2016-06-11T00:06:58.857Z,1005.23
2016-06-11T00:07:58.908Z,1005.18
2016-06-11T00:08:58.957Z,1005.2
2016-06-11T00:09:58.992Z,1005.22
2016-06-11T00:10:59.056Z,1005.2
2016-06-11T00:11:59.091Z,1005.14
2016-06-11T00:12:59.141Z,1005.21
2016-06-11T00:13:59.191Z,1005.2
2016-06-11T00:14:59.241Z,1005.17
2016-06-11T00:15:59.291Z,1005.2
2016-06-11T00:16:59.340Z,1005.19
2016-06-11T00:17:59.391Z,1005.19
2016-06-11T00:18:59.425Z,1005.22
2016-06-11T00:19:59.491Z,1005.22
2016-06-11T00:20:59.540Z,1005.21
2016-06-11T00:21:59.575Z,1005.2
2016-06-11T00:22:59.626Z,1005.2
2016-06-11T00:23:59.674Z,1005.18
2016-06-11T00:24:59.724Z,1005.16
2016-06-11T00:25:59.791Z,1005.15
2016-06-11T00:26:59.809Z,1005.13
2016-06-11T00:27:59.875Z,1005.15
2016-06-11T00:28:59.909Z,1005.17
2016-06-11T00:29:59.959Z,1005.18
2016-06-11T00:31:00.009Z,1005.12
2016-06-11T00:32:00.059Z,1005.18
2016-06-11T00:33:00.109Z,1005.15
2016-06-11T00:34:00.159Z,1005.15
2016-06-11T00:35:00.208Z,1005.12
2016-06-11T00:36:00.243Z,1005.1
2016-06-11T00:37:00.309Z,1005.16
2016-06-11T00:38:00.342Z,1005.1
2016-06-11T00:39:00.393Z,1005.09
2016-06-11T00:40:00.442Z,1005.09
2016-06-11T00:41:00.493Z,1005.08
2016-06-11T00:42:00.543Z,1005.06
2016-06-11T00:43:00.577Z,1005.11
2016-06-11T00:44:00.643Z,1005.11
2016-06-11T00:45:00.693Z,1005.08
2016-06-11T00:46:00.742Z,1005.1
2016-06-11T00:47:00.777Z,1005.11
2016-06-11T00:48:00.828Z,1005.06
2016-06-11T00:49:00.876Z,1005.05
2016-06-11T00:50:00.926Z,1005.09
2016-06-11T00:51:00.977Z,1005.03
2016-06-11T00:52:01.027Z,1005.08
2016-06-11T00:53:01.123Z,1005.02
2016-06-11T00:54:01.111Z,1005.06
2016-06-11T00:55:01.161Z,1005.06
2016-06-11T00:56:01.211Z,1005.07
2016-06-11T00:57:01.261Z,1005.05
2016-06-11T00:58:01.310Z,1005.07
2016-06-11T00:59:02.189Z,1005.04
2016-06-11T01:00:01.989Z,1005.04
2016-06-11T01:01:01.460Z,1005.05
2016-06-11T01:02:01.495Z,1005.04
2016-06-11T01:03:01.560Z,1005.07
2016-06-11T01:04:01.610Z,1005.07
2016-06-11T01:05:01.645Z,1005.05
2016-06-11T01:06:01.694Z,1005.03
2016-06-11T01:07:01.745Z,1005.01
2016-06-11T01:08:01.778Z,1005.03
2016-06-11T01:09:01.829Z,1005.06
2016-06-11T01:10:01.895Z,1005.07
2016-06-11T01:11:01.929Z,1005.07
2016-06-11T01:12:01.994Z,1005.09
2016-06-11T01:13:02.029Z,1005.11
2016-06-11T01:14:02.078Z,1005.08
2016-06-11T01:15:02.128Z,1005.11
2016-06-11T01:16:02.163Z,1005.1
2016-06-11T01:17:02.212Z,1005.09
2016-06-11T01:18:02.279Z,1005.09
2016-06-11T01:19:02.329Z,1005.15
2016-06-11T01:20:02.362Z,1005.08
2016-06-11T01:21:02.413Z,1005.07
2016-06-11T01:22:02.463Z,1005.12
2016-06-11T01:23:02.512Z,1005.12
2016-06-11T01:24:02.563Z,1005.09
2016-06-11T01:25:02.611Z,1005.13
2016-06-11T01:26:02.647Z,1005.09
2016-06-11T01:27:02.697Z,1005.09
2016-06-11T01:28:02.746Z,1005.06
2016-06-11T01:29:02.796Z,1005.04
2016-06-11T01:30:02.846Z,1005.04
2016-06-11T01:31:02.897Z,1005.05
2016-06-11T01:32:02.946Z,1005.01
2016-06-11T01:33:02.981Z,1005.05
2016-06-11T01:34:03.046Z,1005.06
2016-06-11T01:35:03.096Z,1004.99
2016-06-11T01:36:03.131Z,1004.97
2016-06-11T01:37:03.181Z,1004.99
2016-06-11T01:38:03.231Z,1004.98
2016-06-11T01:39:03.296Z,1004.96
2016-06-11T01:40:03.330Z,1004.95
2016-06-11T01:41:03.380Z,1004.98
2016-06-11T01:42:03.431Z,1004.97
2016-06-11T01:43:03.480Z,1004.99
2016-06-11T01:44:03.514Z,1005
2016-06-11T01:45:03.956Z,1004.99
2016-06-11T01:46:03.614Z,1004.98
2016-06-11T01:47:03.665Z,1004.96
2016-06-11T01:48:03.714Z,1004.99
2016-06-11T01:49:03.764Z,1005.01
2016-06-11T01:50:03.814Z,1004.99
2016-06-11T01:51:03.849Z,1005.01
2016-06-11T01:52:03.898Z,1005
2016-06-11T01:53:04.011Z,1004.96
2016-06-11T01:54:03.998Z,1004.96
2016-06-11T01:55:04.048Z,1004.96
2016-06-11T01:56:04.114Z,1004.94
2016-06-11T01:57:04.148Z,1004.97
2016-06-11T01:58:04.198Z,1004.91
2016-06-11T01:59:04.779Z,1004.92
2016-06-11T02:00:04.298Z,1004.89
2016-06-11T02:01:04.333Z,1004.91
2016-06-11T02:02:04.382Z,1004.93
2016-06-11T02:03:04.433Z,1004.89
2016-06-11T02:04:04.482Z,1004.87
2016-06-11T02:05:04.532Z,1004.9
2016-06-11T02:06:04.582Z,1004.86
2016-06-11T02:07:04.616Z,1004.82
2016-06-11T02:08:04.682Z,1004.81
2016-06-11T02:09:04.716Z,1004.8
2016-06-11T02:10:04.767Z,1004.79
2016-06-11T02:11:04.817Z,1004.78
2016-06-11T02:12:04.866Z,1004.77
2016-06-11T02:13:04.917Z,1004.76
2016-06-11T02:14:04.967Z,1004.78
2016-06-11T02:15:05.016Z,1004.79
2016-06-11T02:16:05.065Z,1004.79
2016-06-11T02:17:05.116Z,1004.81
2016-06-11T02:18:05.166Z,1004.81
2016-06-11T02:19:05.200Z,1004.77
2016-06-11T02:20:05.250Z,1004.81
2016-06-11T02:21:05.300Z,1004.82
2016-06-11T02:22:05.350Z,1004.79
2016-06-11T02:23:05.384Z,1004.83
2016-06-11T02:24:05.451Z,1004.84
2016-06-11T02:25:05.484Z,1004.83
2016-06-11T02:26:05.534Z,1004.81
2016-06-11T02:27:05.585Z,1004.81
2016-06-11T02:28:05.635Z,1004.8
2016-06-11T02:29:05.683Z,1004.79
2016-06-11T02:30:06.156Z,1004.78
2016-06-11T02:31:05.768Z,1004.79
2016-06-11T02:32:05.834Z,1004.81
2016-06-11T02:33:05.868Z,1004.79
2016-06-11T02:34:05.918Z,1004.78
2016-06-11T02:35:05.968Z,1004.77
2016-06-11T02:36:06.018Z,1004.76
2016-06-11T02:37:06.068Z,1004.78
2016-06-11T02:38:06.118Z,1004.79
2016-06-11T02:39:06.169Z,1004.8
2016-06-11T02:40:06.202Z,1004.77
2016-06-11T02:41:06.252Z,1004.77
2016-06-11T02:42:06.302Z,1004.73
2016-06-11T02:43:06.352Z,1004.75
2016-06-11T02:44:06.402Z,1004.77
2016-06-11T02:45:06.437Z,1004.76
2016-06-11T02:46:06.501Z,1004.73
2016-06-11T02:47:06.536Z,1004.73
2016-06-11T02:48:06.586Z,1004.74
2016-06-11T02:49:06.636Z,1004.74
2016-06-11T02:50:06.686Z,1004.75
2016-06-11T02:51:06.720Z,1004.74
2016-06-11T02:52:06.786Z,1004.73
2016-06-11T02:53:06.883Z,1004.71
2016-06-11T02:54:06.870Z,1004.75
2016-06-11T02:55:06.920Z,1004.78
2016-06-11T02:56:06.971Z,1004.75
2016-06-11T02:57:07.020Z,1004.75
2016-06-11T02:58:07.069Z,1004.75
2016-06-11T02:59:07.105Z,1004.81
2016-06-11T03:00:07.154Z,1004.8
2016-06-11T03:01:07.204Z,1004.78
2016-06-11T03:02:07.254Z,1004.82
2016-06-11T03:03:07.289Z,1004.81
2016-06-11T03:04:07.354Z,1004.8
2016-06-11T03:05:07.388Z,1004.79
2016-06-11T03:06:07.439Z,1004.8
2016-06-11T03:07:07.488Z,1004.8
2016-06-11T03:08:07.522Z,1004.8
2016-06-11T03:09:07.589Z,1004.79
2016-06-11T03:10:07.623Z,1004.79
2016-06-11T03:11:07.673Z,1004.83
2016-06-11T03:12:07.722Z,1004.78
2016-06-11T03:13:07.772Z,1004.85
2016-06-11T03:14:07.807Z,1004.83
2016-06-11T03:15:08.294Z,1004.84
2016-06-11T03:16:07.907Z,1004.81
2016-06-11T03:17:07.956Z,1004.83
2016-06-11T03:18:08.006Z,1004.77
2016-06-11T03:19:08.056Z,1004.78
2016-06-11T03:20:08.091Z,1004.82
2016-06-11T03:21:08.156Z,1004.82
2016-06-11T03:22:08.190Z,1004.8
2016-06-11T03:23:08.241Z,1004.78
2016-06-11T03:24:08.291Z,1004.77
2016-06-11T03:25:08.340Z,1004.74
2016-06-11T03:26:08.391Z,1004.79
2016-06-11T03:27:08.441Z,1004.75
2016-06-11T03:28:08.475Z,1004.75
2016-06-11T03:29:08.525Z,1004.73
2016-06-11T03:30:08.684Z,1004.71
2016-06-11T03:31:08.609Z,1004.75
2016-06-11T03:32:08.674Z,1004.74
2016-06-11T03:33:08.709Z,1004.75
2016-06-11T03:34:08.759Z,1004.71
2016-06-11T03:35:08.809Z,1004.71
2016-06-11T03:36:08.858Z,1004.73
2016-06-11T03:37:08.909Z,1004.72
2016-06-11T03:38:08.943Z,1004.69
2016-06-11T03:39:08.992Z,1004.72
2016-06-11T03:40:09.043Z,1004.71
2016-06-11T03:41:09.093Z,1004.7
2016-06-11T03:42:09.127Z,1004.68
2016-06-11T03:43:09.177Z,1004.7
2016-06-11T03:44:09.227Z,1004.71
2016-06-11T03:45:09.292Z,1004.69
2016-06-11T03:46:09.327Z,1004.72
2016-06-11T03:47:09.377Z,1004.7
2016-06-11T03:48:09.427Z,1004.67
2016-06-11T03:49:09.477Z,1004.71
2016-06-11T03:50:09.512Z,1004.72
2016-06-11T03:51:09.560Z,1004.73
2016-06-11T03:52:09.611Z,1004.74
2016-06-11T03:53:09.692Z,1004.72
2016-06-11T03:54:09.695Z,1004.75
2016-06-11T03:55:09.761Z,1004.78
2016-06-11T03:56:09.795Z,1004.77
2016-06-11T03:57:09.845Z,1004.8
2016-06-11T03:58:09.895Z,1004.78
2016-06-11T03:59:09.946Z,1004.8
2016-06-11T04:00:09.979Z,1004.84
2016-06-11T04:01:10.029Z,1004.86
2016-06-11T04:02:10.079Z,1004.82
2016-06-11T04:03:10.113Z,1004.87
2016-06-11T04:04:10.179Z,1004.84
2016-06-11T04:05:10.228Z,1004.86
2016-06-11T04:06:10.264Z,1004.83
2016-06-11T04:07:10.314Z,1004.88
2016-06-11T04:08:10.362Z,1004.86
2016-06-11T04:09:10.398Z,1004.84
2016-06-11T04:10:10.448Z,1004.9
2016-06-11T04:11:10.497Z,1004.87
2016-06-11T04:12:10.547Z,1004.9
2016-06-11T04:13:10.597Z,1004.89
2016-06-11T04:14:10.631Z,1004.88
2016-06-11T04:15:10.682Z,1004.87
2016-06-11T04:16:10.731Z,1004.9
2016-06-11T04:17:10.781Z,1004.91
2016-06-11T04:18:10.832Z,1004.9
2016-06-11T04:19:10.881Z,1004.87
2016-06-11T04:20:10.915Z,1004.89
2016-06-11T04:21:10.966Z,1004.88
2016-06-11T04:22:11.016Z,1004.89
2016-06-11T04:23:11.066Z,1004.85
2016-06-11T04:24:11.116Z,1004.92
2016-06-11T04:25:11.166Z,1004.91
2016-06-11T04:26:11.200Z,1004.87
2016-06-11T04:27:11.250Z,1004.89
2016-06-11T04:28:11.299Z,1004.9
2016-06-11T04:29:11.350Z,1004.91
2016-06-11T04:30:11.399Z,1004.88
2016-06-11T04:31:11.450Z,1004.86
2016-06-11T04:32:11.500Z,1004.9
2016-06-11T04:33:11.534Z,1004.89
2016-06-11T04:34:11.584Z,1004.87
2016-06-11T04:35:11.634Z,1004.86
2016-06-11T04:36:11.684Z,1004.86
2016-06-11T04:37:11.734Z,1004.86
2016-06-11T04:38:11.768Z,1004.82
2016-06-11T04:39:11.818Z,1004.86
2016-06-11T04:40:11.868Z,1004.84
2016-06-11T04:41:11.918Z,1004.85
2016-06-11T04:42:11.968Z,1004.86
2016-06-11T04:43:12.002Z,1004.85
2016-06-11T04:44:12.067Z,1004.89
2016-06-11T04:45:12.102Z,1004.87
2016-06-11T04:46:12.151Z,1004.92
2016-06-11T04:47:12.186Z,1004.9
2016-06-11T04:48:12.252Z,1004.93
2016-06-11T04:49:12.286Z,1004.87
2016-06-11T04:50:12.336Z,1004.91
2016-06-11T04:51:12.386Z,1004.92
2016-06-11T04:52:12.436Z,1004.9
2016-06-11T04:53:12.533Z,1004.88
2016-06-11T04:54:12.537Z,1004.89
2016-06-11T04:55:12.570Z,1004.88
2016-06-11T04:56:12.620Z,1004.87
2016-06-11T04:57:12.670Z,1004.89
2016-06-11T04:58:12.720Z,1004.88
2016-06-11T04:59:12.770Z,1004.92
2016-06-11T05:00:12.820Z,1004.94
2016-06-11T05:01:12.854Z,1004.95
2016-06-11T05:02:12.920Z,1004.96
2016-06-11T05:03:12.954Z,1004.94
2016-06-11T05:04:13.020Z,1005
2016-06-11T05:05:13.054Z,1004.96
2016-06-11T05:06:13.104Z,1004.97
2016-06-11T05:07:13.154Z,1004.99
2016-06-11T05:08:13.205Z,1004.94
2016-06-11T05:09:13.238Z,1004.99
2016-06-11T05:10:13.304Z,1004.98
2016-06-11T05:11:13.338Z,1004.99
2016-06-11T05:12:13.389Z,1005
2016-06-11T05:13:13.438Z,1004.97
2016-06-11T05:14:13.487Z,1004.98
2016-06-11T05:15:13.538Z,1004.98
2016-06-11T05:16:13.588Z,1004.99
2016-06-11T05:17:13.622Z,1005.01
2016-06-11T05:18:13.688Z,1004.98
2016-06-11T05:19:13.722Z,1005.03
2016-06-11T05:20:13.773Z,1004.99
2016-06-11T05:21:13.823Z,1004.98
2016-06-11T05:22:13.872Z,1004.97
2016-06-11T05:23:13.906Z,1004.99
2016-06-11T05:24:13.972Z,1004.97
2016-06-11T05:25:14.021Z,1004.98
2016-06-11T05:26:14.057Z,1004.98
2016-06-11T05:27:14.106Z,1004.99
2016-06-11T05:28:14.155Z,1005
2016-06-11T05:29:14.206Z,1005
2016-06-11T05:30:14.256Z,1005
2016-06-11T05:31:14.290Z,1005.07
2016-06-11T05:32:14.356Z,1005.05
2016-06-11T05:33:14.406Z,1005.1
2016-06-11T05:34:14.440Z,1005.04
2016-06-11T05:35:14.490Z,1005.09
2016-06-11T05:36:14.541Z,1005.07
2016-06-11T05:37:14.590Z,1005.09
2016-06-11T05:38:14.639Z,1005.1
2016-06-11T05:39:14.690Z,1005.11
2016-06-11T05:40:14.724Z,1005.09
2016-06-11T05:41:14.773Z,1005.1
2016-06-11T05:42:14.824Z,1005.14
2016-06-11T05:43:14.874Z,1005.12
2016-06-11T05:44:14.940Z,1005.11
2016-06-11T05:45:14.990Z,1005.12
2016-06-11T05:46:15.025Z,1005.12
2016-06-11T05:47:15.058Z,1005.13
2016-06-11T05:48:15.124Z,1005.12
2016-06-11T05:49:15.173Z,1005.16
2016-06-11T05:50:15.209Z,1005.17
2016-06-11T05:51:15.258Z,1005.2
2016-06-11T05:52:15.307Z,1005.15
2016-06-11T05:53:15.405Z,1005.18
2016-06-11T05:54:15.408Z,1005.19
2016-06-11T05:55:15.458Z,1005.13
2016-06-11T05:56:15.507Z,1005.15
2016-06-11T05:57:15.592Z,1005.19
2016-06-11T05:58:15.668Z,1005.14
2016-06-11T05:59:15.758Z,1005.17
2016-06-11T06:00:15.848Z,1005.16
2016-06-11T06:01:15.940Z,1005.17
2016-06-11T06:02:16.008Z,1005.15
2016-06-11T06:03:16.072Z,1005.2
2016-06-11T06:04:16.136Z,1005.22
2016-06-11T06:05:16.201Z,1005.2
2016-06-11T06:06:16.266Z,1005.24
2016-06-11T06:07:16.323Z,1005.22
2016-06-11T06:08:16.378Z,1005.24
2016-06-11T06:09:16.418Z,1005.24
2016-06-11T06:10:16.473Z,1005.23
2016-06-11T06:11:16.529Z,1005.21
2016-06-11T06:12:16.581Z,1005.27
2016-06-11T06:13:16.633Z,1005.24
2016-06-11T06:14:16.684Z,1005.27
2016-06-11T06:15:16.736Z,1005.26
2016-06-11T06:16:17.179Z,1005.27
2016-06-11T06:17:16.839Z,1005.25
2016-06-11T06:18:16.890Z,1005.25
2016-06-11T06:19:16.924Z,1005.24
2016-06-11T06:20:16.991Z,1005.27
2016-06-11T06:21:17.026Z,1005.27
2016-06-11T06:22:17.092Z,1005.29
2016-06-11T06:23:17.127Z,1005.3
2016-06-11T06:24:17.177Z,1005.28
2016-06-11T06:25:17.225Z,1005.28
2016-06-11T06:26:17.276Z,1005.31
2016-06-11T06:27:17.311Z,1005.29
2016-06-11T06:28:17.376Z,1005.29
2016-06-11T06:29:17.410Z,1005.35
2016-06-11T06:30:17.460Z,1005.33
2016-06-11T06:31:17.510Z,1005.36
2016-06-11T06:32:17.576Z,1005.36
2016-06-11T06:33:17.611Z,1005.38
2016-06-11T06:34:17.660Z,1005.37
2016-06-11T06:35:17.710Z,1005.37
2016-06-11T06:36:17.760Z,1005.38
2016-06-11T06:37:17.842Z,1005.41
2016-06-11T06:38:17.844Z,1005.45
2016-06-11T06:39:17.894Z,1005.47
2016-06-11T06:40:17.960Z,1005.46
2016-06-11T06:41:17.994Z,1005.44
2016-06-11T06:42:18.044Z,1005.48
2016-06-11T06:43:18.095Z,1005.5
2016-06-11T06:44:18.144Z,1005.5
2016-06-11T06:45:18.397Z,1005.47
2016-06-11T06:46:18.244Z,1005.52
2016-06-11T06:47:18.279Z,1005.49
2016-06-11T06:48:18.344Z,1005.5
2016-06-11T06:49:18.378Z,1005.45
2016-06-11T06:50:18.427Z,1005.51
2016-06-11T06:51:18.478Z,1005.46
2016-06-11T06:52:18.528Z,1005.47
2016-06-11T06:53:18.624Z,1005.49
2016-06-11T06:54:18.628Z,1005.55
2016-06-11T06:55:18.678Z,1005.53
2016-06-11T06:56:18.712Z,1005.55
2016-06-11T06:57:18.778Z,1005.6
2016-06-11T06:58:18.828Z,1005.58
2016-06-11T06:59:18.862Z,1005.57
2016-06-11T07:00:18.927Z,1005.59
2016-06-11T07:01:19.337Z,1005.59
2016-06-11T07:02:19.011Z,1005.58
2016-06-11T07:03:19.062Z,1005.6
2016-06-11T07:04:19.111Z,1005.6
2016-06-11T07:05:19.162Z,1005.59
2016-06-11T07:06:19.212Z,1005.58
2016-06-11T07:07:19.262Z,1005.57
2016-06-11T07:08:19.312Z,1005.61
2016-06-11T07:09:19.361Z,1005.59
2016-06-11T07:10:19.396Z,1005.58
2016-06-11T07:11:19.446Z,1005.6
2016-06-11T07:12:19.495Z,1005.6
2016-06-11T07:13:19.545Z,1005.58
2016-06-11T07:14:19.595Z,1005.56
2016-06-11T07:15:19.646Z,1005.59
2016-06-11T07:16:20.304Z,1005.59
2016-06-11T07:17:19.745Z,1005.62
2016-06-11T07:18:19.796Z,1005.6
2016-06-11T07:19:19.830Z,1005.63
2016-06-11T07:20:19.894Z,1005.62
2016-06-11T07:21:19.930Z,1005.58
2016-06-11T07:22:19.980Z,1005.54
2016-06-11T07:23:20.045Z,1005.56
2016-06-11T07:24:20.079Z,1005.57
2016-06-11T07:25:20.129Z,1005.55
2016-06-11T07:26:20.179Z,1005.56
2016-06-11T07:27:20.245Z,1005.58
2016-06-11T07:28:20.279Z,1005.56
2016-06-11T07:29:20.330Z,1005.58
2016-06-11T07:30:20.380Z,1005.6
2016-06-11T07:31:20.819Z,1005.58
2016-06-11T07:32:20.479Z,1005.59
2016-06-11T07:33:20.528Z,1005.58
2016-06-11T07:34:20.579Z,1005.58
2016-06-11T07:35:20.613Z,1005.56
2016-06-11T07:36:20.679Z,1005.58
2016-06-11T07:37:20.713Z,1005.56
2016-06-11T07:38:20.779Z,1005.58
2016-06-11T07:39:20.813Z,1005.58
2016-06-11T07:40:20.879Z,1005.58
2016-06-11T07:41:20.928Z,1005.55
2016-06-11T07:42:20.962Z,1005.56
2016-06-11T07:43:21.029Z,1005.56
2016-06-11T07:44:21.079Z,1005.56
2016-06-11T07:45:21.190Z,1005.57
2016-06-11T07:46:21.241Z,1005.56
2016-06-11T07:47:21.213Z,1005.55
2016-06-11T07:48:21.263Z,1005.56
2016-06-11T07:49:21.313Z,1005.53
2016-06-11T07:50:21.362Z,1005.58
2016-06-11T07:51:21.412Z,1005.55
2016-06-11T07:52:21.462Z,1005.55
2016-06-11T07:53:21.559Z,1005.56
2016-06-11T07:54:21.563Z,1005.56
2016-06-11T07:55:21.613Z,1005.52
2016-06-11T07:56:21.662Z,1005.55
2016-06-11T07:57:21.712Z,1005.57
2016-06-11T07:58:21.762Z,1005.57
2016-06-11T07:59:21.812Z,1005.58
2016-06-11T08:00:21.862Z,1005.56
2016-06-11T08:01:21.912Z,1005.56
2016-06-11T08:02:21.962Z,1005.51
2016-06-11T08:03:22.012Z,1005.49
2016-06-11T08:04:22.062Z,1005.47
2016-06-11T08:05:22.112Z,1005.5
2016-06-11T08:06:22.162Z,1005.46
2016-06-11T08:07:22.211Z,1005.49
2016-06-11T08:08:22.262Z,1005.51
2016-06-11T08:09:22.311Z,1005.51
2016-06-11T08:10:22.361Z,1005.49
2016-06-11T08:11:22.395Z,1005.47
2016-06-11T08:12:22.462Z,1005.51
2016-06-11T08:13:22.512Z,1005.47
2016-06-11T08:14:22.545Z,1005.52
2016-06-11T08:15:22.596Z,1005.55
2016-06-11T08:16:22.661Z,1005.54
2016-06-11T08:17:22.711Z,1005.55
2016-06-11T08:18:22.761Z,1005.55
2016-06-11T08:19:22.796Z,1005.54
2016-06-11T08:20:22.861Z,1005.53
2016-06-11T08:21:22.911Z,1005.54
2016-06-11T08:22:22.945Z,1005.52
2016-06-11T08:23:22.996Z,1005.57
2016-06-11T08:24:23.061Z,1005.55
2016-06-11T08:25:23.095Z,1005.55
2016-06-11T08:26:23.145Z,1005.55
2016-06-11T08:27:23.211Z,1005.53
2016-06-11T08:28:23.245Z,1005.57
2016-06-11T08:29:23.311Z,1005.53
2016-06-11T08:30:23.345Z,1005.52
2016-06-11T08:31:23.395Z,1005.59
2016-06-11T08:32:23.460Z,1005.58
2016-06-11T08:33:23.494Z,1005.59
2016-06-11T08:34:23.544Z,1005.6
2016-06-11T08:35:23.594Z,1005.57
2016-06-11T08:36:23.645Z,1005.58
2016-06-11T08:37:23.695Z,1005.57
2016-06-11T08:38:23.744Z,1005.56
2016-06-11T08:39:23.809Z,1005.58
2016-06-11T08:40:23.845Z,1005.6
2016-06-11T08:41:23.910Z,1005.62
2016-06-11T08:42:23.944Z,1005.56
2016-06-11T08:43:24.010Z,1005.58
2016-06-11T08:44:24.044Z,1005.59
2016-06-11T08:45:24.094Z,1005.52
2016-06-11T08:46:24.144Z,1005.58
2016-06-11T08:47:24.209Z,1005.61
2016-06-11T08:48:24.244Z,1005.64
2016-06-11T08:49:24.293Z,1005.6
2016-06-11T08:50:24.359Z,1005.64
2016-06-11T08:51:24.393Z,1005.62
2016-06-11T08:52:24.460Z,1005.64
2016-06-11T08:53:24.556Z,1005.63
2016-06-11T08:54:24.544Z,1005.63
2016-06-11T08:55:24.609Z,1005.59
2016-06-11T08:56:24.644Z,1005.6
2016-06-11T08:57:24.709Z,1005.62
2016-06-11T08:58:24.759Z,1005.63
2016-06-11T08:59:24.793Z,1005.6
2016-06-11T09:00:24.860Z,1005.62
2016-06-11T09:01:24.909Z,1005.62
2016-06-11T09:02:24.944Z,1005.61
2016-06-11T09:03:24.993Z,1005.61
2016-06-11T09:04:25.058Z,1005.6
2016-06-11T09:05:25.092Z,1005.59
2016-06-11T09:06:25.143Z,1005.61
2016-06-11T09:07:25.209Z,1005.58
2016-06-11T09:08:25.242Z,1005.58
2016-06-11T09:09:25.293Z,1005.59
2016-06-11T09:10:25.358Z,1005.62
2016-06-11T09:11:25.408Z,1005.65
2016-06-11T09:12:25.443Z,1005.65
2016-06-11T09:13:25.508Z,1005.64
2016-06-11T09:14:25.575Z,1005.62
2016-06-11T09:15:25.608Z,1005.64
2016-06-11T09:16:25.658Z,1005.64
2016-06-11T09:17:25.708Z,1005.64
2016-06-11T09:18:25.757Z,1005.68
2016-06-11T09:19:25.808Z,1005.64
2016-06-11T09:20:25.858Z,1005.64
2016-06-11T09:21:25.908Z,1005.66
2016-06-11T09:22:25.957Z,1005.65
2016-06-11T09:23:26.008Z,1005.65
2016-06-11T09:24:26.058Z,1005.64
2016-06-11T09:25:26.108Z,1005.62
2016-06-11T09:26:26.157Z,1005.57
2016-06-11T09:27:26.208Z,1005.57
2016-06-11T09:28:26.257Z,1005.59
2016-06-11T09:29:26.308Z,1005.63
2016-06-11T09:30:26.357Z,1005.59
2016-06-11T09:31:26.408Z,1005.61
2016-06-11T09:32:26.458Z,1005.59
2016-06-11T09:33:26.508Z,1005.61
2016-06-11T09:34:26.557Z,1005.62
2016-06-11T09:35:26.607Z,1005.62
2016-06-11T09:36:26.673Z,1005.58
2016-06-11T09:37:26.707Z,1005.59
2016-06-11T09:38:26.757Z,1005.6
2016-06-11T09:39:26.822Z,1005.58
2016-06-11T09:40:26.857Z,1005.58
2016-06-11T09:41:26.908Z,1005.58
2016-06-11T09:42:26.972Z,1005.57
2016-06-11T09:43:27.022Z,1005.55
2016-06-11T09:44:27.073Z,1005.55
2016-06-11T09:45:27.123Z,1005.58
2016-06-11T09:46:27.173Z,1005.56
2016-06-11T09:47:27.222Z,1005.51
2016-06-11T09:48:27.272Z,1005.55
2016-06-11T09:49:27.321Z,1005.54
2016-06-11T09:50:27.372Z,1005.54
2016-06-11T09:51:27.422Z,1005.51
2016-06-11T09:52:27.472Z,1005.54
2016-06-11T09:53:27.584Z,1005.49
2016-06-11T09:54:27.572Z,1005.54
2016-06-11T09:55:27.621Z,1005.53
2016-06-11T09:56:27.671Z,1005.54
2016-06-11T09:57:27.721Z,1005.49
2016-06-11T09:58:27.772Z,1005.5
2016-06-11T09:59:27.838Z,1005.55
2016-06-11T10:00:27.871Z,1005.52
2016-06-11T10:01:28.624Z,1005.48
2016-06-11T10:02:27.987Z,1005.47
2016-06-11T10:03:28.037Z,1005.52
2016-06-11T10:04:28.087Z,1005.49
2016-06-11T10:05:28.137Z,1005.52
2016-06-11T10:06:28.188Z,1005.52
2016-06-11T10:07:28.237Z,1005.52
2016-06-11T10:08:28.286Z,1005.47
2016-06-11T10:09:28.336Z,1005.53
2016-06-11T10:10:28.387Z,1005.53
2016-06-11T10:11:28.437Z,1005.53
2016-06-11T10:12:28.486Z,1005.54
2016-06-11T10:13:28.536Z,1005.54
2016-06-11T10:14:28.586Z,1005.55
2016-06-11T10:15:28.652Z,1005.51
2016-06-11T10:16:28.702Z,1005.52
2016-06-11T10:17:28.736Z,1005.52
2016-06-11T10:18:28.802Z,1005.57
2016-06-11T10:19:28.852Z,1005.5
2016-06-11T10:20:28.903Z,1005.5
2016-06-11T10:21:28.951Z,1005.55
2016-06-11T10:22:29.001Z,1005.51
2016-06-11T10:23:29.051Z,1005.51
2016-06-11T10:24:29.101Z,1005.5
2016-06-11T10:25:29.151Z,1005.5
2016-06-11T10:26:29.201Z,1005.49
2016-06-11T10:27:29.267Z,1005.51
2016-06-11T10:28:29.316Z,1005.52
2016-06-11T10:29:29.367Z,1005.54
2016-06-11T10:30:29.416Z,1005.53
2016-06-11T10:31:29.467Z,1005.59
2016-06-11T10:32:29.548Z,1005.57
2016-06-11T10:33:29.567Z,1005.55
2016-06-11T10:34:29.617Z,1005.57
2016-06-11T10:35:29.666Z,1005.53
2016-06-11T10:36:29.732Z,1005.57
2016-06-11T10:37:29.767Z,1005.62
2016-06-11T10:38:29.832Z,1005.63
2016-06-11T10:39:29.881Z,1005.62
2016-06-11T10:40:29.932Z,1005.58
2016-06-11T10:41:29.981Z,1005.57
2016-06-11T10:42:30.032Z,1005.61
2016-06-11T10:43:30.081Z,1005.6
2016-06-11T10:44:30.132Z,1005.62
2016-06-11T10:45:30.182Z,1005.59
2016-06-11T10:46:30.638Z,1005.62
2016-06-11T10:47:30.281Z,1005.58
2016-06-11T10:48:30.347Z,1005.6
2016-06-11T10:49:30.382Z,1005.61
2016-06-11T10:50:30.447Z,1005.58
2016-06-11T10:51:30.498Z,1005.6
2016-06-11T10:52:30.546Z,1005.6
2016-06-11T10:53:30.644Z,1005.63
2016-06-11T10:54:30.662Z,1005.62
2016-06-11T10:55:30.713Z,1005.62
2016-06-11T10:56:30.747Z,1005.59
2016-06-11T10:57:30.812Z,1005.62
2016-06-11T10:58:30.862Z,1005.64
2016-06-11T10:59:30.912Z,1005.6
2016-06-11T11:00:30.962Z,1005.59
2016-06-11T11:01:31.028Z,1005.61
2016-06-11T11:02:31.062Z,1005.58
2016-06-11T11:03:31.128Z,1005.59
2016-06-11T11:04:31.177Z,1005.58
2016-06-11T11:05:31.243Z,1005.56
2016-06-11T11:06:31.278Z,1005.56
2016-06-11T11:07:31.327Z,1005.54
2016-06-11T11:08:31.393Z,1005.5
2016-06-11T11:09:31.443Z,1005.52
2016-06-11T11:10:31.493Z,1005.52
2016-06-11T11:11:31.542Z,1005.53
2016-06-11T11:12:31.608Z,1005.49
2016-06-11T11:13:31.658Z,1005.46
2016-06-11T11:14:31.708Z,1005.49
2016-06-11T11:15:31.758Z,1005.45
2016-06-11T11:16:31.824Z,1005.46
2016-06-11T11:17:31.890Z,1005.48
2016-06-11T11:18:31.923Z,1005.46
2016-06-11T11:19:31.974Z,1005.49
2016-06-11T11:20:32.024Z,1005.45
2016-06-11T11:21:32.074Z,1005.42
2016-06-11T11:22:32.124Z,1005.45
2016-06-11T11:23:32.189Z,1005.44
2016-06-11T11:24:32.239Z,1005.43
2016-06-11T11:25:32.289Z,1005.44
2016-06-11T11:26:32.355Z,1005.45
2016-06-11T11:27:32.404Z,1005.4
2016-06-11T11:28:32.454Z,1005.38
2016-06-11T11:29:32.504Z,1005.36
2016-06-11T11:30:32.571Z,1005.36
2016-06-11T11:31:32.621Z,1005.34
2016-06-11T11:32:33.545Z,1005.37
2016-06-11T11:33:32.720Z,1005.36
2016-06-11T11:34:32.786Z,1005.34
2016-06-11T11:35:32.835Z,1005.4
2016-06-11T11:36:32.886Z,1005.37
2016-06-11T11:37:32.951Z,1005.3
2016-06-11T11:38:33.000Z,1005.25
2016-06-11T11:39:33.051Z,1005.31
2016-06-11T11:40:33.117Z,1005.3
2016-06-11T11:41:33.166Z,1005.29
2016-06-11T11:42:33.216Z,1005.31
2016-06-11T11:43:33.283Z,1005.24
2016-06-11T11:44:33.316Z,1005.26
2016-06-11T11:45:33.381Z,1005.27
2016-06-11T11:46:33.432Z,1005.26
2016-06-11T11:47:33.481Z,1005.24
2016-06-11T11:48:33.548Z,1005.22
2016-06-11T11:49:33.597Z,1005.25
2016-06-11T11:50:33.646Z,1005.22
2016-06-11T11:51:33.697Z,1005.18
2016-06-11T11:52:33.763Z,1005.19
2016-06-11T11:53:33.969Z,1005.2
2016-06-11T11:54:33.878Z,1005.23
2016-06-11T11:55:33.928Z,1005.19
2016-06-11T11:56:33.978Z,1005.16
2016-06-11T11:57:34.043Z,1005.16
2016-06-11T11:58:34.093Z,1005.16
2016-06-11T11:59:34.143Z,1005.14
2016-06-11T12:00:34.210Z,1005.09
2016-06-11T12:01:34.275Z,1005.12
2016-06-11T12:02:34.309Z,1005.11
2016-06-11T12:03:34.375Z,1005.02
2016-06-11T12:04:34.425Z,1005.08
2016-06-11T12:05:34.474Z,1005.08
2016-06-11T12:06:34.524Z,1005.11
2016-06-11T12:07:34.574Z,1005.09
2016-06-11T12:08:34.640Z,1005.06
2016-06-11T12:09:34.690Z,1005.09